Time;durP1;ratioP1;P1;durP2;ratioP2;P2;SDS_P1;SDS_P2;PMS_P1;PMS_P2;Temp;Humidity;BMP_temperature;BMP_pressure;BME280_temperature;BME280_humidity;BME280_pressure;Samples;Min_cycle;Max_cycle;Signal;HPM_P1;HPM_P2
2022/03/13 00:00:21;;;;;;;22.17;9.73;;;;;;;;;;5018091;28;20150;-70
2022/03/13 00:02:46;;;;;;;8.90;4.97;;;;;;;;;;5009544;28;20485;-69
2022/03/13 00:05:16;;;;;;;19.50;7.05;;;;;;;;;;5004868;28;20052;-70
2022/03/13 00:07:46;;;;;;;23.83;7.95;;;;;;;;;;5017486;28;20053;-70
2022/03/13 00:10:12;;;;;;;28.98;9.32;;;;;;;;;;5017078;28;20363;-69
2022/03/13 00:12:38;;;;;;;22.45;8.75;;;;;;;;;;5017317;28;20095;-69
2022/03/13 00:15:09;;;;;;;19.90;7.28;;;;;;;;;;5017353;28;20028;-70
2022/03/13 00:17:34;;;;;;;25.40;8.85;;;;;;;;;;5016422;28;20029;-70
2022/03/13 00:20:01;;;;;;;14.10;5.50;;;;;;;;;;5010473;28;20040;-70
2022/03/13 00:22:27;;;;;;;24.90;8.50;;;;;;;;;;5017874;28;20040;-70
2022/03/13 00:24:53;;;;;;;26.55;7.65;;;;;;;;;;5017504;28;20025;-70
2022/03/13 00:27:19;;;;;;;27.50;9.32;;;;;;;;;;5018460;28;20025;-70
2022/03/13 00:29:44;;;;;;;22.88;8.48;;;;;;;;;;5018475;28;20028;-70
2022/03/13 00:32:12;;;;;;;22.90;7.40;;;;;;;;;;5018722;28;20180;-70
2022/03/13 00:34:38;;;;;;;12.32;4.63;;;;;;;;;;5016574;28;20021;-70
2022/03/13 00:37:03;;;;;;;6.95;3.90;;;;;;;;;;5017290;28;20091;-70
2022/03/13 00:39:31;;;;;;;10.40;4.80;;;;;;;;;;4990395;28;20029;-70
2022/03/13 00:41:56;;;;;;;8.43;3.65;;;;;;;;;;5020095;28;20052;-71
2022/03/13 00:44:22;;;;;;;11.02;4.85;;;;;;;;;;5022195;28;20029;-71
2022/03/13 00:46:48;;;;;;;13.05;5.03;;;;;;;;;;5030750;28;20021;-71
2022/03/13 00:49:13;;;;;;;12.70;4.85;;;;;;;;;;5023035;28;20022;-71
2022/03/13 00:51:38;;;;;;;9.07;4.10;;;;;;;;;;5022370;28;20118;-71
2022/03/13 00:54:04;;;;;;;8.35;4.10;;;;;;;;;;5022294;28;21169;-70
2022/03/13 00:56:30;;;;;;;8.73;3.97;;;;;;;;;;5014238;28;20169;-70
2022/03/13 00:58:58;;;;;;;7.53;4.10;;;;;;;;;;5023467;28;20043;-71
2022/03/13 01:01:24;;;;;;;7.70;4.22;;;;;;;;;;5023799;28;20037;-70
2022/03/13 01:03:53;;;;;;;7.78;3.75;;;;;;;;;;4996037;28;20136;-70
2022/03/13 01:06:19;;;;;;;7.25;3.30;;;;;;;;;;5014940;28;20030;-70
2022/03/13 01:08:46;;;;;;;6.22;3.30;;;;;;;;;;5014410;28;20408;-70
2022/03/13 01:11:12;;;;;;;7.72;4.20;;;;;;;;;;5022947;28;20606;-71
2022/03/13 01:13:38;;;;;;;7.18;4.15;;;;;;;;;;5013383;28;20484;-70
2022/03/13 01:16:10;;;;;;;8.15;4.05;;;;;;;;;;5014448;28;20030;-71
2022/03/13 01:18:39;;;;;;;8.80;3.95;;;;;;;;;;5022986;28;20036;-70
2022/03/13 01:21:04;;;;;;;6.55;3.88;;;;;;;;;;5022688;28;20049;-70
2022/03/13 01:23:30;;;;;;;7.95;3.72;;;;;;;;;;4997082;28;20025;-70
2022/03/13 01:26:15;;;;;;;9.88;5.63;;;;;;;;;;5020564;28;20028;-70
2022/03/13 01:28:40;;;;;;;8.38;5.00;;;;;;;;;;5029976;28;20567;-72
2022/03/13 01:31:07;;;;;;;7.80;4.13;;;;;;;;;;5022904;28;20040;-69
2022/03/13 01:33:33;;;;;;;10.60;5.63;;;;;;;;;;5019147;28;20149;-70
2022/03/13 01:35:58;;;;;;;7.68;4.50;;;;;;;;;;5020105;28;20128;-69
2022/03/13 01:38:24;;;;;;;8.05;4.60;;;;;;;;;;5011598;28;20044;-70
2022/03/13 01:40:52;;;;;;;11.52;5.13;;;;;;;;;;5034521;28;20051;-71
2022/03/13 01:43:18;;;;;;;9.18;4.60;;;;;;;;;;4996728;28;20033;-69
2022/03/13 01:45:43;;;;;;;8.48;4.05;;;;;;;;;;4999474;28;20110;-70
2022/03/13 01:48:10;;;;;;;8.35;4.25;;;;;;;;;;5020262;28;20025;-70
2022/03/13 01:50:35;;;;;;;6.25;3.97;;;;;;;;;;5018361;28;20584;-70
2022/03/13 01:53:01;;;;;;;8.35;4.05;;;;;;;;;;5003513;28;20056;-70
2022/03/13 01:55:26;;;;;;;8.43;4.30;;;;;;;;;;5020214;28;20067;-70
2022/03/13 01:57:51;;;;;;;6.55;4.28;;;;;;;;;;5014248;28;20033;-70
2022/03/13 02:00:19;;;;;;;10.00;4.43;;;;;;;;;;5020883;28;20392;-71
2022/03/13 02:02:45;;;;;;;11.90;5.18;;;;;;;;;;5020863;28;20044;-70
2022/03/13 02:05:22;;;;;;;7.80;4.07;;;;;;;;;;5013639;28;20065;-71
2022/03/13 02:07:50;;;;;;;6.07;3.55;;;;;;;;;;5022005;28;20045;-70
2022/03/13 02:10:17;;;;;;;8.32;4.25;;;;;;;;;;5012852;28;20059;-70
2022/03/13 02:12:42;;;;;;;7.95;4.00;;;;;;;;;;5022944;28;20055;-70
2022/03/13 02:15:08;;;;;;;9.35;4.43;;;;;;;;;;5015297;28;20556;-71
2022/03/13 02:17:34;;;;;;;8.20;4.10;;;;;;;;;;5023006;28;20043;-70
2022/03/13 02:20:03;;;;;;;8.93;4.60;;;;;;;;;;5020621;28;20417;-70
2022/03/13 02:22:29;;;;;;;10.82;4.30;;;;;;;;;;5022304;28;20048;-70
2022/03/13 02:24:55;;;;;;;9.40;4.53;;;;;;;;;;5019674;28;20021;-70
2022/03/13 02:27:25;;;;;;;10.02;4.63;;;;;;;;;;5013580;28;20243;-70
2022/03/13 02:29:50;;;;;;;8.48;5.30;;;;;;;;;;5020923;28;20029;-71
2022/03/13 02:32:17;;;;;;;10.57;4.50;;;;;;;;;;4997143;28;20028;-72
2022/03/13 02:34:44;;;;;;;10.63;4.60;;;;;;;;;;5020769;28;20481;-71
2022/03/13 02:37:39;;;;;;;8.32;4.68;;;;;;;;;;5021385;28;20047;-71
2022/03/13 02:40:05;;;;;;;10.18;5.05;;;;;;;;;;4999151;28;20457;-71
2022/03/13 02:42:33;;;;;;;10.18;4.90;;;;;;;;;;5022523;28;20146;-72
2022/03/13 02:44:58;;;;;;;8.07;4.40;;;;;;;;;;5023135;28;20127;-71
2022/03/13 02:47:24;;;;;;;7.97;3.97;;;;;;;;;;5022214;28;20064;-71
2022/03/13 02:49:50;;;;;;;10.65;4.40;;;;;;;;;;5021881;28;20523;-71
2022/03/13 02:52:16;;;;;;;10.13;4.70;;;;;;;;;;5021507;28;20028;-71
2022/03/13 02:54:41;;;;;;;12.43;5.22;;;;;;;;;;5022024;28;20037;-72
2022/03/13 02:57:07;;;;;;;9.07;4.13;;;;;;;;;;5014618;28;20072;-72
2022/03/13 02:59:34;;;;;;;10.95;4.72;;;;;;;;;;5023239;28;20043;-70
2022/03/13 03:02:00;;;;;;;8.48;4.20;;;;;;;;;;5022700;28;20036;-71
2022/03/13 03:04:25;;;;;;;6.35;3.78;;;;;;;;;;5013913;28;20108;-72
2022/03/13 03:06:55;;;;;;;13.30;4.13;;;;;;;;;;5020706;28;20675;-71
2022/03/13 03:09:23;;;;;;;6.38;4.10;;;;;;;;;;5019942;28;20354;-71
2022/03/13 03:11:49;;;;;;;9.43;4.88;;;;;;;;;;5020606;28;20151;-71
2022/03/13 03:14:19;;;;;;;9.68;4.95;;;;;;;;;;5013277;28;20393;-70
2022/03/13 03:16:44;;;;;;;13.82;5.80;;;;;;;;;;5012839;28;20028;-70
2022/03/13 03:19:16;;;;;;;;;;;;;;;;;;5010249;28;20203;-70
2022/03/13 03:21:44;;;;;;;11.95;5.47;;;;;;;;;;5013113;28;19956;-71
2022/03/13 03:24:16;;;;;;;13.63;5.30;;;;;;;;;;5021074;28;20040;-71
2022/03/13 03:26:42;;;;;;;13.18;5.60;;;;;;;;;;5013474;28;20145;-71
2022/03/13 03:29:07;;;;;;;11.88;5.68;;;;;;;;;;5021370;28;20032;-71
2022/03/13 03:31:33;;;;;;;11.18;4.65;;;;;;;;;;4995185;28;20111;-71
2022/03/13 03:33:59;;;;;;;8.50;4.90;;;;;;;;;;5019923;28;20033;-71
2022/03/13 03:36:24;;;;;;;7.60;4.65;;;;;;;;;;5012339;28;20034;-71
2022/03/13 03:38:50;;;;;;;8.13;4.82;;;;;;;;;;5020018;28;20770;-70
2022/03/13 03:41:15;;;;;;;9.93;5.57;;;;;;;;;;5012448;28;20241;-71
2022/03/13 03:43:40;;;;;;;11.98;6.53;;;;;;;;;;5029826;28;20049;-71
2022/03/13 03:46:06;;;;;;;11.02;6.50;;;;;;;;;;5018830;28;20029;-72
2022/03/13 03:48:32;;;;;;;13.73;6.50;;;;;;;;;;4994919;28;20755;-71
2022/03/13 03:50:57;;;;;;;10.32;5.93;;;;;;;;;;5020244;28;20040;-70
2022/03/13 03:53:23;;;;;;;8.32;4.80;;;;;;;;;;5019000;28;20104;-71
2022/03/13 03:55:48;;;;;;;9.77;5.30;;;;;;;;;;4996859;28;20428;-70
2022/03/13 03:58:19;;;;;;;9.10;5.00;;;;;;;;;;5020453;28;20026;-70
2022/03/13 04:00:46;;;;;;;8.95;5.20;;;;;;;;;;5020401;28;20029;-71
2022/03/13 04:03:12;;;;;;;7.55;5.00;;;;;;;;;;4998380;28;20391;-70
2022/03/13 04:05:39;;;;;;;8.65;4.43;;;;;;;;;;5032114;28;20119;-71
2022/03/13 04:08:05;;;;;;;11.35;5.30;;;;;;;;;;5014432;28;20102;-71
2022/03/13 04:10:30;;;;;;;11.18;6.40;;;;;;;;;;5021156;28;20025;-70
2022/03/13 04:12:56;;;;;;;17.38;8.13;;;;;;;;;;5015341;28;20114;-71
2022/03/13 04:15:21;;;;;;;16.52;7.53;;;;;;;;;;5010956;28;20151;-70
2022/03/13 04:17:47;;;;;;;11.18;6.50;;;;;;;;;;5023166;28;20040;-71
2022/03/13 04:20:13;;;;;;;11.15;6.07;;;;;;;;;;5025383;28;20124;-71
2022/03/13 04:22:38;;;;;;;8.85;5.03;;;;;;;;;;5025762;28;20052;-71
2022/03/13 04:25:04;;;;;;;7.43;4.72;;;;;;;;;;5025714;28;20055;-71
2022/03/13 04:27:30;;;;;;;11.05;4.63;;;;;;;;;;5025646;28;20444;-72
2022/03/13 04:29:56;;;;;;;19.33;10.45;;;;;;;;;;5018300;28;20595;-71
2022/03/13 04:32:23;;;;;;;34.72;13.95;;;;;;;;;;5025924;28;20064;-72
2022/03/13 04:34:48;;;;;;;27.08;10.15;;;;;;;;;;5024637;28;20034;-71
2022/03/13 04:37:16;;;;;;;15.50;7.72;;;;;;;;;;5017839;28;20048;-72
2022/03/13 04:39:41;;;;;;;10.95;6.70;;;;;;;;;;5023798;28;20481;-73
2022/03/13 04:42:07;;;;;;;11.18;5.78;;;;;;;;;;5024062;28;20045;-72
2022/03/13 04:44:35;;;;;;;10.25;5.70;;;;;;;;;;5023835;28;20586;-71
2022/03/13 04:47:01;;;;;;;10.93;6.22;;;;;;;;;;5024075;28;20033;-71
2022/03/13 04:49:27;;;;;;;9.13;5.55;;;;;;;;;;5025450;28;20044;-72
2022/03/13 04:51:52;;;;;;;8.88;5.40;;;;;;;;;;5024454;28;20410;-72
2022/03/13 04:54:18;;;;;;;16.27;8.55;;;;;;;;;;5023758;28;20041;-71
2022/03/13 04:56:44;;;;;;;23.67;10.63;;;;;;;;;;5018096;28;20032;-72
2022/03/13 04:59:10;;;;;;;15.95;8.25;;;;;;;;;;5024162;28;20539;-71
2022/03/13 05:01:38;;;;;;;15.60;8.43;;;;;;;;;;5023955;28;20034;-72
2022/03/13 05:04:03;;;;;;;15.35;8.35;;;;;;;;;;5023353;28;20048;-72
2022/03/13 05:06:37;;;;;;;10.35;6.75;;;;;;;;;;5024188;28;20099;-72
2022/03/13 05:09:03;;;;;;;13.75;7.40;;;;;;;;;;5022777;28;20048;-72
2022/03/13 05:11:29;;;;;;;12.23;6.70;;;;;;;;;;5025516;28;20098;-71
2022/03/13 05:13:57;;;;;;;12.45;6.10;;;;;;;;;;5023693;28;20041;-71
2022/03/13 05:16:22;;;;;;;13.88;8.02;;;;;;;;;;5022162;28;20396;-70
2022/03/13 05:18:50;;;;;;;19.10;10.02;;;;;;;;;;5024946;28;20041;-70
2022/03/13 05:21:17;;;;;;;17.05;9.05;;;;;;;;;;5022830;28;20413;-71
2022/03/13 05:23:42;;;;;;;18.27;8.82;;;;;;;;;;5016409;28;20029;-70
2022/03/13 05:26:08;;;;;;;14.05;7.88;;;;;;;;;;5029003;28;20048;-71
2022/03/13 05:28:35;;;;;;;15.68;8.15;;;;;;;;;;5024853;28;20516;-71
2022/03/13 05:31:01;;;;;;;13.32;7.05;;;;;;;;;;4998006;28;20437;-71
2022/03/13 05:33:26;;;;;;;15.02;8.48;;;;;;;;;;5023624;28;20200;-71
2022/03/13 05:35:54;;;;;;;13.30;8.38;;;;;;;;;;5039255;28;20120;-70
2022/03/13 05:38:22;;;;;;;13.57;7.80;;;;;;;;;;5017280;28;20124;-70
2022/03/13 05:40:47;;;;;;;14.13;8.02;;;;;;;;;;5016681;28;20033;-71
2022/03/13 05:43:13;;;;;;;23.67;12.07;;;;;;;;;;5023343;28;20047;-71
2022/03/13 05:45:41;;;;;;;26.90;12.95;;;;;;;;;;5006414;28;20216;-71
2022/03/13 05:48:07;;;;;;;25.33;11.60;;;;;;;;;;5024158;28;20104;-72
2022/03/13 05:50:36;;;;;;;20.92;9.95;;;;;;;;;;5017296;28;20488;-71
2022/03/13 05:53:04;;;;;;;16.20;8.82;;;;;;;;;;5022344;28;20039;-76
2022/03/13 05:55:30;;;;;;;15.48;8.50;;;;;;;;;;5012029;28;20032;-76
2022/03/13 05:57:56;;;;;;;12.10;7.95;;;;;;;;;;5011974;28;20029;-75
2022/03/13 06:00:25;;;;;;;14.82;9.38;;;;;;;;;;5019259;28;20095;-74
2022/03/13 06:02:51;;;;;;;23.92;12.45;;;;;;;;;;5018146;28;20472;-76
2022/03/13 06:05:17;;;;;;;18.83;9.98;;;;;;;;;;5019917;28;20124;-75
2022/03/13 06:07:43;;;;;;;20.40;9.73;;;;;;;;;;5012900;28;20108;-75
2022/03/13 06:10:09;;;;;;;16.13;8.80;;;;;;;;;;5019014;28;20168;-75
2022/03/13 06:12:35;;;;;;;17.13;9.57;;;;;;;;;;5011545;28;20040;-76
2022/03/13 06:15:02;;;;;;;13.02;7.88;;;;;;;;;;5019538;28;20068;-76
2022/03/13 06:17:28;;;;;;;12.90;7.85;;;;;;;;;;5012740;28;20251;-77
2022/03/13 06:19:55;;;;;;;12.70;7.32;;;;;;;;;;5020960;28;20028;-77
2022/03/13 06:22:22;;;;;;;12.50;7.60;;;;;;;;;;5012375;28;20033;-77
2022/03/13 06:24:47;;;;;;;14.30;8.40;;;;;;;;;;5019268;28;20068;-77
2022/03/13 06:27:13;;;;;;;27.90;12.60;;;;;;;;;;5018904;28;20295;-74
2022/03/13 06:29:42;;;;;;;18.35;9.45;;;;;;;;;;5033307;28;20970;-75
2022/03/13 06:32:07;;;;;;;14.70;8.98;;;;;;;;;;5019153;28;20055;-75
2022/03/13 06:34:33;;;;;;;14.57;9.38;;;;;;;;;;5020378;28;20029;-75
2022/03/13 06:36:58;;;;;;;11.35;7.35;;;;;;;;;;4995927;28;20033;-75
2022/03/13 06:39:26;;;;;;;11.23;7.85;;;;;;;;;;5011587;28;20037;-75
2022/03/13 06:41:55;;;;;;;12.95;7.93;;;;;;;;;;5009398;28;20725;-75
2022/03/13 06:44:20;;;;;;;12.32;7.72;;;;;;;;;;5018307;28;20033;-76
2022/03/13 06:46:46;;;;;;;13.93;8.35;;;;;;;;;;5015342;28;20025;-75
2022/03/13 06:49:11;;;;;;;16.38;9.55;;;;;;;;;;5015294;28;20029;-75
2022/03/13 06:51:39;;;;;;;13.32;9.43;;;;;;;;;;5016775;28;20136;-75
2022/03/13 06:54:08;;;;;;;13.32;9.35;;;;;;;;;;5017223;28;20892;-75
2022/03/13 06:56:38;;;;;;;19.52;10.88;;;;;;;;;;4989039;28;20120;-75
2022/03/13 06:59:04;;;;;;;15.82;10.82;;;;;;;;;;5015641;28;20037;-74
2022/03/13 07:01:29;;;;;;;15.68;11.82;;;;;;;;;;5017657;28;20481;-74
2022/03/13 07:03:55;;;;;;;17.85;12.48;;;;;;;;;;5015654;28;20493;-74
2022/03/13 07:06:20;;;;;;;20.90;13.68;;;;;;;;;;5017673;28;20033;-74
2022/03/13 07:08:46;;;;;;;19.70;13.80;;;;;;;;;;4995819;28;20099;-75
2022/03/13 07:11:15;;;;;;;22.63;14.80;;;;;;;;;;5019325;28;20068;-75
2022/03/13 07:13:44;;;;;;;21.08;14.18;;;;;;;;;;5016764;28;20059;-74
2022/03/13 07:16:15;;;;;;;21.23;14.52;;;;;;;;;;5014663;28;20533;-76
2022/03/13 07:18:42;;;;;;;22.35;14.93;;;;;;;;;;5015304;28;20237;-74
2022/03/13 07:21:07;;;;;;;23.30;15.30;;;;;;;;;;5015291;28;20037;-75
2022/03/13 07:23:33;;;;;;;24.85;15.93;;;;;;;;;;5013739;28;20243;-74
2022/03/13 07:25:58;;;;;;;25.20;16.20;;;;;;;;;;5016335;28;20215;-75
2022/03/13 07:28:24;;;;;;;28.55;17.75;;;;;;;;;;5024957;28;20409;-75
2022/03/13 07:30:49;;;;;;;31.52;18.25;;;;;;;;;;4988672;28;20248;-74
2022/03/13 07:33:14;;;;;;;25.73;17.48;;;;;;;;;;5016387;28;20029;-74
2022/03/13 07:35:40;;;;;;;28.98;18.33;;;;;;;;;;5016924;28;20508;-76
2022/03/13 07:38:06;;;;;;;27.67;17.45;;;;;;;;;;5016120;28;20028;-75
2022/03/13 07:40:31;;;;;;;28.55;17.70;;;;;;;;;;5016067;28;20088;-73
2022/03/13 07:42:57;;;;;;;22.98;16.80;;;;;;;;;;5014242;28;20052;-75
2022/03/13 07:45:26;;;;;;;22.70;16.35;;;;;;;;;;5014178;28;20319;-75
2022/03/13 07:47:54;;;;;;;26.08;16.75;;;;;;;;;;5016360;28;20549;-75
2022/03/13 07:50:20;;;;;;;24.83;17.08;;;;;;;;;;5016053;28;20030;-76
2022/03/13 07:52:47;;;;;;;31.20;18.92;;;;;;;;;;5017998;28;20029;-74
2022/03/13 07:55:16;;;;;;;28.98;17.45;;;;;;;;;;5019559;28;20432;-75
2022/03/13 07:57:41;;;;;;;42.28;23.13;;;;;;;;;;5019895;28;20074;-75
2022/03/13 08:00:10;;;;;;;45.67;23.30;;;;;;;;;;5020319;28;21285;-75
2022/03/13 08:02:43;;;;;;;36.80;22.02;;;;;;;;;;5022211;28;20080;-76
2022/03/13 08:05:08;;;;;;;32.75;18.80;;;;;;;;;;5015444;28;20073;-75
2022/03/13 08:07:34;;;;;;;24.90;17.17;;;;;;;;;;5020672;28;20160;-75
2022/03/13 08:09:59;;;;;;;24.35;16.85;;;;;;;;;;5037631;28;20029;-75
2022/03/13 08:12:24;;;;;;;23.85;16.48;;;;;;;;;;5016874;28;20044;-76
2022/03/13 08:14:52;;;;;;;23.65;15.63;;;;;;;;;;5020537;28;20029;-75
2022/03/13 08:17:18;;;;;;;23.15;16.55;;;;;;;;;;5030716;28;20122;-75
2022/03/13 08:19:43;;;;;;;28.58;17.70;;;;;;;;;;5021319;28;20473;-75
2022/03/13 08:22:09;;;;;;;26.50;16.65;;;;;;;;;;5018325;28;20404;-74
2022/03/13 08:24:35;;;;;;;27.88;17.38;;;;;;;;;;5021045;28;20033;-75
2022/03/13 08:27:00;;;;;;;29.33;17.73;;;;;;;;;;5019588;28;20094;-75
2022/03/13 08:29:26;;;;;;;26.98;17.58;;;;;;;;;;5021878;28;20298;-75
2022/03/13 08:31:53;;;;;;;23.58;17.13;;;;;;;;;;5019740;28;20028;-74
2022/03/13 08:34:22;;;;;;;26.27;17.95;;;;;;;;;;5020238;28;20392;-75
2022/03/13 08:36:51;;;;;;;26.23;18.52;;;;;;;;;;5038767;28;20036;-75
2022/03/13 08:39:17;;;;;;;27.33;17.35;;;;;;;;;;5019382;28;20048;-75
2022/03/13 08:41:43;;;;;;;25.38;17.05;;;;;;;;;;5020307;28;20954;-74
2022/03/13 08:44:08;;;;;;;23.30;16.33;;;;;;;;;;5020419;28;20025;-73
2022/03/13 08:46:35;;;;;;;21.50;16.23;;;;;;;;;;5018160;28;20777;-76
2022/03/13 08:49:03;;;;;;;24.48;16.15;;;;;;;;;;5019016;28;20361;-73
2022/03/13 08:51:29;;;;;;;21.40;15.55;;;;;;;;;;5018577;28;20029;-76
2022/03/13 08:53:56;;;;;;;20.10;14.63;;;;;;;;;;5017737;28;20033;-75
2022/03/13 08:56:21;;;;;;;23.75;15.52;;;;;;;;;;5014364;28;20060;-74
2022/03/13 08:58:53;;;;;;;26.20;17.15;;;;;;;;;;5014818;28;20043;-76
2022/03/13 09:01:19;;;;;;;26.58;17.20;;;;;;;;;;5017315;28;20036;-75
2022/03/13 09:03:46;;;;;;;25.80;16.90;;;;;;;;;;5019030;28;20567;-73
2022/03/13 09:06:12;;;;;;;23.48;16.83;;;;;;;;;;5021253;28;20042;-73
2022/03/13 09:08:37;;;;;;;28.50;17.75;;;;;;;;;;5009692;28;20155;-74
2022/03/13 09:11:04;;;;;;;23.65;16.75;;;;;;;;;;5017999;28;20037;-73
2022/03/13 09:13:33;;;;;;;25.20;17.42;;;;;;;;;;5019873;28;20025;-72
2022/03/13 09:16:00;;;;;;;25.80;16.25;;;;;;;;;;5017728;28;20025;-73
2022/03/13 09:18:30;;;;;;;26.42;17.00;;;;;;;;;;5018981;28;20305;-73
2022/03/13 09:20:56;;;;;;;25.15;17.10;;;;;;;;;;5010918;28;20028;-72
2022/03/13 09:23:21;;;;;;;23.02;16.35;;;;;;;;;;5021143;28;20780;-75
2022/03/13 09:25:50;;;;;;;23.58;16.25;;;;;;;;;;5019199;28;20112;-74
2022/03/13 09:28:18;;;;;;;25.42;15.98;;;;;;;;;;5020139;28;20167;-73
2022/03/13 09:30:43;;;;;;;25.35;16.75;;;;;;;;;;5019317;28;20030;-74
2022/03/13 09:33:09;;;;;;;20.92;14.82;;;;;;;;;;5018438;28;20468;-74
2022/03/13 09:35:34;;;;;;;22.10;15.68;;;;;;;;;;5018333;28;20489;-75
2022/03/13 09:38:00;;;;;;;19.63;15.00;;;;;;;;;;5018679;28;20033;-74
2022/03/13 09:40:38;;;;;;;20.70;14.25;;;;;;;;;;5004746;28;20033;-74
2022/03/13 09:43:05;;;;;;;19.48;14.32;;;;;;;;;;5033048;28;20040;-76
2022/03/13 09:45:33;;;;;;;20.27;14.38;;;;;;;;;;5003637;28;20044;-73
2022/03/13 09:48:00;;;;;;;27.85;15.38;;;;;;;;;;5020049;28;20462;-73
2022/03/13 09:50:25;;;;;;;22.63;15.00;;;;;;;;;;5031626;28;20017;-74
2022/03/13 09:52:51;;;;;;;20.17;14.25;;;;;;;;;;5018781;28;20137;-74
2022/03/13 09:55:16;;;;;;;19.25;14.43;;;;;;;;;;5021619;28;20034;-74
2022/03/13 09:57:46;;;;;;;23.75;15.48;;;;;;;;;;5035884;28;20098;-73
2022/03/13 10:00:13;;;;;;;25.08;16.63;;;;;;;;;;5012774;28;20078;-75
2022/03/13 10:02:39;;;;;;;20.67;15.55;;;;;;;;;;5017434;28;20139;-74
2022/03/13 10:05:12;;;;;;;27.40;17.70;;;;;;;;;;5015276;28;20049;-73
2022/03/13 10:07:49;;;;;;;23.50;16.40;;;;;;;;;;5018544;28;20060;-73
2022/03/13 10:10:17;;;;;;;23.35;16.15;;;;;;;;;;5020805;28;20032;-74
2022/03/13 10:12:42;;;;;;;20.23;14.63;;;;;;;;;;5021156;28;20035;-73
2022/03/13 10:15:08;;;;;;;24.88;15.00;;;;;;;;;;5020018;28;21807;-72
2022/03/13 10:17:36;;;;;;;21.75;14.75;;;;;;;;;;5019285;28;20024;-73
2022/03/13 10:20:14;;;;;;;19.13;12.85;;;;;;;;;;5019439;28;20214;-74
2022/03/13 10:22:39;;;;;;;21.67;14.20;;;;;;;;;;5019154;28;20029;-73
2022/03/13 10:25:05;;;;;;;21.70;13.85;;;;;;;;;;5019825;28;20028;-73
2022/03/13 10:27:33;;;;;;;22.38;14.35;;;;;;;;;;5020594;28;20051;-74
2022/03/13 10:30:02;;;;;;;16.58;12.30;;;;;;;;;;5034502;28;20027;-74
2022/03/13 10:32:28;;;;;;;22.98;13.30;;;;;;;;;;4995398;28;20028;-73
2022/03/13 10:34:54;;;;;;;36.25;18.63;;;;;;;;;;5018898;28;20266;-72
2022/03/13 10:37:43;;;;;;;24.08;15.55;;;;;;;;;;5020575;28;20044;-73
2022/03/13 10:40:08;;;;;;;19.65;13.52;;;;;;;;;;5019186;28;20021;-74
2022/03/13 10:42:41;;;;;;;22.55;14.70;;;;;;;;;;5017761;28;20130;-74
2022/03/13 10:45:07;;;;;;;20.45;14.07;;;;;;;;;;5018794;28;20029;-73
2022/03/13 10:47:33;;;;;;;17.38;13.20;;;;;;;;;;5018856;28;20028;-72
2022/03/13 10:49:58;;;;;;;20.08;15.52;;;;;;;;;;5010793;28;21794;-73
2022/03/13 10:52:31;;;;;;;19.92;13.70;;;;;;;;;;5018601;28;20495;-73
2022/03/13 10:55:15;;;;;;;20.27;14.40;;;;;;;;;;5018536;28;20519;-73
2022/03/13 10:57:51;;;;;;;19.15;13.82;;;;;;;;;;5018273;28;20496;-73
2022/03/13 11:00:17;;;;;;;22.65;14.75;;;;;;;;;;5017926;28;20025;-73
2022/03/13 11:02:42;;;;;;;17.95;13.40;;;;;;;;;;5019438;28;20073;-74
2022/03/13 11:05:11;;;;;;;21.10;13.43;;;;;;;;;;5016522;28;20144;-74
2022/03/13 11:07:36;;;;;;;19.42;13.55;;;;;;;;;;4991387;28;20095;-72
2022/03/13 11:10:03;;;;;;;17.50;13.38;;;;;;;;;;5019152;28;20128;-72
2022/03/13 11:12:31;;;;;;;17.02;12.32;;;;;;;;;;5021676;28;20565;-71
2022/03/13 11:15:00;;;;;;;19.00;13.82;;;;;;;;;;5017735;28;20028;-72
2022/03/13 11:17:31;;;;;;;18.75;13.40;;;;;;;;;;5016671;28;20032;-71
2022/03/13 11:19:58;;;;;;;21.38;12.55;;;;;;;;;;5019303;28;20024;-70
2022/03/13 11:22:24;;;;;;;16.20;12.43;;;;;;;;;;5032537;28;20052;-66
2022/03/13 11:24:50;;;;;;;17.80;13.35;;;;;;;;;;5015213;28;20021;-67
2022/03/13 11:27:16;;;;;;;18.55;13.80;;;;;;;;;;5008783;28;20422;-67
2022/03/13 11:29:46;;;;;;;22.25;13.52;;;;;;;;;;5008799;28;20028;-66
2022/03/13 11:32:29;;;;;;;18.98;13.70;;;;;;;;;;5007649;28;20138;-66
2022/03/13 11:35:07;;;;;;;20.33;14.25;;;;;;;;;;5014578;28;20116;-67
2022/03/13 11:37:33;;;;;;;19.33;13.82;;;;;;;;;;5012990;28;20600;-68
2022/03/13 11:39:59;;;;;;;18.52;14.85;;;;;;;;;;5014976;28;20228;-67
2022/03/13 11:42:25;;;;;;;22.35;14.73;;;;;;;;;;5014197;28;20143;-68
2022/03/13 11:44:50;;;;;;;20.15;14.52;;;;;;;;;;5014109;28;20528;-68
2022/03/13 11:47:20;;;;;;;19.60;14.85;;;;;;;;;;5014229;28;20128;-67
2022/03/13 11:49:46;;;;;;;19.90;14.65;;;;;;;;;;5014530;28;20040;-68
2022/03/13 11:52:20;;;;;;;19.20;13.98;;;;;;;;;;5008385;28;20040;-68
2022/03/13 11:54:52;;;;;;;20.02;13.80;;;;;;;;;;5012622;28;20119;-69
2022/03/13 11:57:17;;;;;;;;;;;;;;;;;;4996625;28;20025;-69
2022/03/13 11:59:48;;;;;;;19.88;14.55;;;;;;;;;;5014122;28;19928;-69
2022/03/13 12:02:34;;;;;;;18.13;13.65;;;;;;;;;;5014396;28;20041;-68
2022/03/13 12:05:18;;;;;;;18.70;14.98;;;;;;;;;;5000884;28;20175;-68
2022/03/13 12:07:56;;;;;;;19.70;14.70;;;;;;;;;;5012339;28;20238;-69
2022/03/13 12:10:47;;;;;;;16.92;13.55;;;;;;;;;;5012895;28;20053;-68
2022/03/13 12:13:17;;;;;;;16.75;13.20;;;;;;;;;;4991818;28;20044;-68
2022/03/13 12:15:49;;;;;;;19.23;13.90;;;;;;;;;;5013004;28;20057;-68
2022/03/13 12:18:23;;;;;;;17.27;13.85;;;;;;;;;;5013731;28;20111;-68
2022/03/13 12:20:49;;;;;;;22.08;14.65;;;;;;;;;;5006571;28;20089;-68
2022/03/13 12:23:31;;;;;;;18.90;13.90;;;;;;;;;;5014746;28;20143;-67
2022/03/13 12:26:13;;;;;;;16.27;12.63;;;;;;;;;;5015116;28;20025;-69
2022/03/13 12:28:44;;;;;;;17.27;13.05;;;;;;;;;;5010503;28;20021;-68
2022/03/13 12:31:09;;;;;;;20.55;14.60;;;;;;;;;;5014637;28;20037;-67
2022/03/13 12:33:39;;;;;;;17.60;13.23;;;;;;;;;;5013765;28;20028;-68
2022/03/13 12:36:06;;;;;;;17.27;13.48;;;;;;;;;;5011162;28;20140;-67
2022/03/13 12:38:34;;;;;;;22.27;14.63;;;;;;;;;;5005845;28;20033;-67
2022/03/13 12:41:02;;;;;;;18.23;12.60;;;;;;;;;;5017208;28;20102;-67
2022/03/13 12:43:49;;;;;;;19.42;13.90;;;;;;;;;;4996065;28;20043;-68
2022/03/13 12:46:18;;;;;;;20.30;14.70;;;;;;;;;;5013928;28;20025;-68
2022/03/13 12:48:52;;;;;;;20.85;14.48;;;;;;;;;;5018205;28;20029;-67
2022/03/13 12:51:34;;;;;;;19.08;13.90;;;;;;;;;;5016665;28;20156;-67
2022/03/13 12:54:20;;;;;;;18.02;14.43;;;;;;;;;;5011078;28;20135;-69
2022/03/13 12:56:52;;;;;;;18.33;13.60;;;;;;;;;;5014503;28;20126;-69
2022/03/13 12:59:26;;;;;;;19.70;14.38;;;;;;;;;;4994361;28;20177;-69
2022/03/13 13:02:14;;;;;;;16.67;13.52;;;;;;;;;;5017662;28;20056;-69
2022/03/13 13:04:52;;;;;;;15.20;12.85;;;;;;;;;;5015631;28;20053;-68
2022/03/13 13:07:18;;;;;;;19.80;13.98;;;;;;;;;;5013450;28;20159;-68
2022/03/13 13:09:45;;;;;;;22.83;15.65;;;;;;;;;;5010126;28;20048;-69
2022/03/13 13:12:18;;;;;;;16.33;13.50;;;;;;;;;;5012723;28;20437;-69
2022/03/13 13:14:44;;;;;;;21.63;15.23;;;;;;;;;;4997332;28;20027;-70
2022/03/13 13:17:12;;;;;;;17.40;13.85;;;;;;;;;;5008203;28;20610;-69
2022/03/13 13:19:41;;;;;;;18.98;14.20;;;;;;;;;;5012077;28;20033;-70
2022/03/13 13:22:07;;;;;;;18.52;13.95;;;;;;;;;;5011543;28;21871;-70
2022/03/13 13:24:36;;;;;;;19.65;14.07;;;;;;;;;;5013077;28;20044;-70
2022/03/13 13:27:06;;;;;;;19.80;13.73;;;;;;;;;;5010077;28;20417;-71
2022/03/13 13:29:36;;;;;;;18.23;14.10;;;;;;;;;;5002984;28;20032;-71
2022/03/13 13:32:18;;;;;;;23.77;14.48;;;;;;;;;;5004889;28;20033;-69
2022/03/13 13:35:02;;;;;;;21.88;13.82;;;;;;;;;;5007474;28;20047;-68
2022/03/13 13:37:29;;;;;;;16.02;13.20;;;;;;;;;;5014438;28;20155;-71
2022/03/13 13:40:02;;;;;;;19.30;14.05;;;;;;;;;;5007343;28;20041;-70
2022/03/13 13:42:32;;;;;;;27.50;16.00;;;;;;;;;;5012813;28;20497;-71
2022/03/13 13:44:57;;;;;;;20.48;13.60;;;;;;;;;;5012502;28;20437;-69
2022/03/13 13:47:24;;;;;;;20.17;13.70;;;;;;;;;;5001038;28;20197;-69
2022/03/13 13:49:49;;;;;;;25.15;14.30;;;;;;;;;;5008760;28;20072;-71
2022/03/13 13:52:15;;;;;;;18.42;13.07;;;;;;;;;;5012928;28;20037;-69
2022/03/13 13:54:40;;;;;;;17.42;13.10;;;;;;;;;;5030288;28;20492;-71
2022/03/13 13:57:06;;;;;;;18.83;12.80;;;;;;;;;;5007236;28;21777;-72
2022/03/13 13:59:42;;;;;;;17.35;12.77;;;;;;;;;;5029879;28;20117;-72
2022/03/13 14:02:19;;;;;;;15.40;12.15;;;;;;;;;;5016827;28;20028;-71
2022/03/13 14:04:52;;;;;;;15.10;11.82;;;;;;;;;;5008356;28;21914;-72
2022/03/13 14:07:18;;;;;;;;;;;;;;;;;;4997940;28;20035;-69
2022/03/13 14:09:44;;;;;;;18.95;13.02;;;;;;;;;;5014867;28;19916;-70
2022/03/13 14:12:09;;;;;;;13.30;11.02;;;;;;;;;;5014237;28;20033;-70
2022/03/13 14:14:35;;;;;;;13.73;10.93;;;;;;;;;;5013513;28;20481;-70
2022/03/13 14:17:01;;;;;;;17.83;11.82;;;;;;;;;;5013753;28;20114;-69
2022/03/13 14:19:30;;;;;;;15.48;12.07;;;;;;;;;;5015248;28;20272;-69
2022/03/13 14:21:56;;;;;;;14.18;11.20;;;;;;;;;;5016952;28;20154;-67
2022/03/13 14:24:24;;;;;;;16.75;11.75;;;;;;;;;;5016620;28;20315;-69
2022/03/13 14:26:49;;;;;;;15.80;11.25;;;;;;;;;;5016558;28;20062;-67
2022/03/13 14:29:16;;;;;;;13.90;10.75;;;;;;;;;;5015357;28;20483;-69